ENKB/KSU METAR and TAF weather

Enter ICAO airport designator
Station Type Date Time Source
ENKB METAR 2020/09/22 03:50 UTC NOAA

ENKB 220350Z 23004KT 200V260 9999 SCT042 BKN080 08/05 Q1003 RMK WIND 745FT 23011KT


Station Type Date Time Source
ENKB Decoded METAR 2020/09/22 03:50 UTC NOAA

Kristiansund / Kvernberget, Norway (ENKB) 63-07N 007-50E 62M
Sep 21, 2020 - 11:50 PM EDT / 2020.09.22 0350 UTC
Wind: from the SW (230 degrees) at 5 MPH (4 KT) (direction variable):0
Visibility: greater than 7 mile(s):0
Sky conditions: mostly cloudy
Temperature: 46 F (8 C)
Dew Point: 41 F (5 C)
Relative Humidity: 81%
Pressure (altimeter): 29.62 in. Hg (1003 hPa)
ob: ENKB 220350Z 23004KT 200V260 9999 SCT042 BKN080 08/05 Q1003 RMK WIND 745FT 23011KT
cycle: 4

Station Type Date Time Source
ENKB TAF 2010/02/05 07:50 UTC NOAA

METAR ENKB 050750Z 15011KT 110V200 9999 SCT055 BKN070 03/M05 Q1007

Example: see airport list